Time;durP1;ratioP1;P1;durP2;ratioP2;P2;SDS_P1;SDS_P2;PMS_P1;PMS_P2;Temp;Humidity;BMP_temperature;BMP_pressure;BME280_temperature;BME280_humidity;BME280_pressure;Samples;Min_cycle;Max_cycle;Signal;HPM_P1;HPM_P2
2022/07/16 00:02:31;;;;;;;10.50;2.75;;;;;;;;;;10314585;28;20622;-74
2022/07/16 00:07:31;;;;;;;2.95;2.35;;;;;;;;;;10314452;28;20121;-74
2022/07/16 00:12:32;;;;;;;7.90;3.08;;;;;;;;;;10331419;28;20468;-74
2022/07/16 00:17:32;;;;;;;5.40;2.22;;;;;;;;;;10314343;28;20034;-74
2022/07/16 00:22:32;;;;;;;4.10;2.42;;;;;;;;;;10314099;28;20034;-73
2022/07/16 00:27:33;;;;;;;3.50;2.00;;;;;;;;;;10314045;28;20105;-74
2022/07/16 00:32:33;;;;;;;6.07;2.40;;;;;;;;;;10301854;28;20488;-75
2022/07/16 00:37:33;;;;;;;2.67;2.30;;;;;;;;;;10324674;28;20436;-74
2022/07/16 00:42:33;;;;;;;2.90;2.13;;;;;;;;;;10315252;28;20620;-74
2022/07/16 00:47:33;;;;;;;2.53;2.03;;;;;;;;;;10313221;28;20481;-74
2022/07/16 00:52:35;;;;;;;4.75;2.00;;;;;;;;;;10313197;28;20030;-74
2022/07/16 00:57:35;;;;;;;3.88;2.17;;;;;;;;;;10313095;28;20042;-74
2022/07/16 01:02:36;;;;;;;4.13;1.92;;;;;;;;;;10312682;28;20533;-74
2022/07/16 01:07:36;;;;;;;3.13;1.90;;;;;;;;;;10312817;28;20114;-74
2022/07/16 01:12:37;;;;;;;2.33;1.80;;;;;;;;;;10296701;28;20105;-75
2022/07/16 01:17:37;;;;;;;2.87;2.47;;;;;;;;;;10312697;28;20038;-73
2022/07/16 01:22:37;;;;;;;3.97;2.47;;;;;;;;;;10312710;28;20034;-73
2022/07/16 01:27:38;;;;;;;4.07;2.05;;;;;;;;;;10312422;28;20042;-74
2022/07/16 01:32:38;;;;;;;2.40;2.20;;;;;;;;;;10312404;28;20041;-74
2022/07/16 01:37:39;;;;;;;6.27;2.30;;;;;;;;;;10312303;28;20054;-74
2022/07/16 01:42:41;;;;;;;2.40;1.90;;;;;;;;;;10312129;28;20439;-74
2022/07/16 01:47:42;;;;;;;3.83;2.10;;;;;;;;;;10335145;28;20093;-74
2022/07/16 01:52:42;;;;;;;5.13;2.33;;;;;;;;;;10319760;28;20035;-74
2022/07/16 01:57:42;;;;;;;2.75;2.38;;;;;;;;;;10319592;28;20026;-74
2022/07/16 02:02:42;;;;;;;4.97;2.33;;;;;;;;;;10336671;28;20042;-74
2022/07/16 02:07:43;;;;;;;3.47;2.45;;;;;;;;;;10319011;28;20176;-74
2022/07/16 02:12:43;;;;;;;2.20;2.00;;;;;;;;;;10318844;28;20038;-74
2022/07/16 02:17:43;;;;;;;5.18;2.42;;;;;;;;;;10318860;28;20062;-74
2022/07/16 02:22:43;;;;;;;5.88;2.60;;;;;;;;;;10318715;28;20038;-74
2022/07/16 02:28:29;;;;;;;12.10;3.83;;;;;;;;;;10318414;28;20056;-74
2022/07/16 02:33:04;;;;;;;4.25;2.60;;;;;;;;;;10325090;28;20023;-74
2022/07/16 02:38:06;;;;;;;3.50;3.20;;;;;;;;;;10335468;28;20023;-74
2022/07/16 02:43:07;;;;;;;6.38;3.95;;;;;;;;;;10317968;28;20412;-74
2022/07/16 02:48:08;;;;;;;9.98;3.50;;;;;;;;;;10317879;28;20035;-74
2022/07/16 02:53:08;;;;;;;6.22;2.90;;;;;;;;;;10317608;28;20096;-74
2022/07/16 02:58:08;;;;;;;5.80;3.53;;;;;;;;;;10316437;28;20022;-74
2022/07/16 03:03:09;;;;;;;6.20;3.70;;;;;;;;;;10316912;28;20058;-74
2022/07/16 03:08:09;;;;;;;4.70;3.17;;;;;;;;;;10316562;28;20469;-74
2022/07/16 03:13:09;;;;;;;5.63;4.38;;;;;;;;;;10316849;28;20027;-74
2022/07/16 03:18:09;;;;;;;4.32;3.15;;;;;;;;;;10316537;28;20117;-74
2022/07/16 03:23:10;;;;;;;6.97;3.90;;;;;;;;;;10316283;28;20109;-74
2022/07/16 03:28:10;;;;;;;5.88;3.40;;;;;;;;;;10316467;28;20038;-75
2022/07/16 03:33:10;;;;;;;6.75;3.13;;;;;;;;;;10316030;28;20034;-74
2022/07/16 03:43:29;;;;;;;4.88;3.85;;;;;;;;;;10333242;28;20026;-74
2022/07/16 03:48:30;;;;;;;7.15;4.32;;;;;;;;;;10315187;28;20026;-75
2022/07/16 03:53:30;;;;;;;9.55;3.75;;;;;;;;;;10315045;28;20030;-75
2022/07/16 03:58:30;;;;;;;11.32;4.13;;;;;;;;;;10314820;28;20165;-75
2022/07/16 04:03:31;;;;;;;9.98;4.40;;;;;;;;;;10346999;28;20161;-74
2022/07/16 04:08:32;;;;;;;13.73;7.32;;;;;;;;;;10314285;28;20038;-73
2022/07/16 04:13:32;;;;;;;11.23;5.30;;;;;;;;;;10314375;28;20117;-74
2022/07/16 04:18:32;;;;;;;8.93;5.32;;;;;;;;;;10314193;28;20038;-74
2022/07/16 04:23:33;;;;;;;9.17;4.37;;;;;;;;;;10314008;28;20064;-75
2022/07/16 04:28:33;;;;;;;6.10;3.47;;;;;;;;;;10313819;28;20026;-75
2022/07/16 04:33:34;;;;;;;6.67;3.20;;;;;;;;;;10330970;28;20034;-74
2022/07/16 04:38:34;;;;;;;4.55;3.50;;;;;;;;;;10313432;28;20870;-76
2022/07/16 04:43:34;;;;;;;5.78;3.30;;;;;;;;;;10313996;28;20037;-76
2022/07/16 04:48:34;;;;;;;3.22;2.88;;;;;;;;;;10313552;28;20168;-74
2022/07/16 04:53:35;;;;;;;3.58;2.53;;;;;;;;;;10312840;28;20042;-74
2022/07/16 04:58:35;;;;;;;4.10;2.63;;;;;;;;;;10312789;28;20042;-74
2022/07/16 05:03:35;;;;;;;7.63;3.38;;;;;;;;;;10312790;28;20046;-75
2022/07/16 05:08:35;;;;;;;9.25;4.00;;;;;;;;;;10312633;28;20423;-75
2022/07/16 05:13:36;;;;;;;5.25;3.20;;;;;;;;;;10313187;28;20499;-75
2022/07/16 05:18:36;;;;;;;6.97;2.83;;;;;;;;;;10312462;28;20093;-75
2022/07/16 05:23:36;;;;;;;5.93;2.90;;;;;;;;;;10320049;28;20269;-73
2022/07/16 05:28:37;;;;;;;6.18;2.70;;;;;;;;;;10320423;28;20026;-74
2022/07/16 05:33:37;;;;;;;6.60;3.22;;;;;;;;;;10337716;28;20083;-74
2022/07/16 05:38:37;;;;;;;5.38;2.58;;;;;;;;;;10320211;28;20513;-75
2022/07/16 05:43:37;;;;;;;9.85;3.08;;;;;;;;;;10319980;28;20492;-75
2022/07/16 05:48:38;;;;;;;5.82;2.90;;;;;;;;;;10319587;28;20035;-76
2022/07/16 05:53:38;;;;;;;10.82;3.45;;;;;;;;;;10319812;28;20129;-76
2022/07/16 05:58:38;;;;;;;17.10;3.00;;;;;;;;;;10319406;28;20427;-76
2022/07/16 06:03:38;;;;;;;7.47;2.75;;;;;;;;;;10318934;28;20567;-76
2022/07/16 06:08:39;;;;;;;5.65;2.95;;;;;;;;;;10318857;28;20042;-75
2022/07/16 06:13:39;;;;;;;6.70;2.90;;;;;;;;;;10336502;28;20038;-76
2022/07/16 06:18:41;;;;;;;4.45;2.90;;;;;;;;;;10318586;28;20066;-75
2022/07/16 06:23:41;;;;;;;6.95;2.50;;;;;;;;;;10335970;28;20065;-75
2022/07/16 06:28:42;;;;;;;6.32;3.33;;;;;;;;;;10335909;28;20073;-75
2022/07/16 06:33:42;;;;;;;6.00;2.70;;;;;;;;;;10316738;28;20428;-75
2022/07/16 06:38:42;;;;;;;5.13;2.75;;;;;;;;;;10335294;28;20481;-73
2022/07/16 06:43:42;;;;;;;5.05;2.38;;;;;;;;;;10317599;28;20173;-73
2022/07/16 06:48:43;;;;;;;9.47;2.80;;;;;;;;;;10317497;28;20037;-76
2022/07/16 06:53:43;;;;;;;2.60;1.90;;;;;;;;;;10316807;28;20440;-74
2022/07/16 06:58:43;;;;;;;6.50;2.22;;;;;;;;;;10316829;28;20050;-73
2022/07/16 07:03:44;;;;;;;6.78;1.95;;;;;;;;;;10316378;28;20050;-74
2022/07/16 07:08:44;;;;;;;3.53;2.13;;;;;;;;;;10316705;28;20034;-74
2022/07/16 07:13:44;;;;;;;14.90;2.35;;;;;;;;;;10316235;28;20034;-73
2022/07/16 07:18:44;;;;;;;4.55;2.30;;;;;;;;;;10333846;28;20038;-74
2022/07/16 07:23:45;;;;;;;5.65;2.28;;;;;;;;;;10315863;28;20500;-75
2022/07/16 07:28:45;;;;;;;7.32;2.70;;;;;;;;;;10315899;28;20518;-74
2022/07/16 07:33:45;;;;;;;11.13;2.75;;;;;;;;;;10333883;28;20039;-74
2022/07/16 07:38:45;;;;;;;11.80;2.65;;;;;;;;;;10315468;28;20034;-74
2022/07/16 07:43:46;;;;;;;5.43;2.60;;;;;;;;;;10314893;28;20505;-74
2022/07/16 07:48:47;;;;;;;6.32;1.63;;;;;;;;;;10332447;28;20031;-74
2022/07/16 07:53:47;;;;;;;4.03;1.90;;;;;;;;;;10332270;28;20038;-74
2022/07/16 07:58:48;;;;;;;8.75;2.15;;;;;;;;;;10314766;28;20543;-74
2022/07/16 08:03:48;;;;;;;4.75;1.80;;;;;;;;;;10314382;28;20148;-74
2022/07/16 08:08:48;;;;;;;8.23;2.05;;;;;;;;;;10313959;28;20034;-74
2022/07/16 08:13:48;;;;;;;9.25;1.85;;;;;;;;;;10314031;28;20034;-74
2022/07/16 08:18:49;;;;;;;3.55;1.55;;;;;;;;;;10339035;28;20141;-74
2022/07/16 08:29:08;;;;;;;7.18;1.98;;;;;;;;;;10366288;28;20034;-74
2022/07/16 08:34:08;;;;;;;8.77;2.20;;;;;;;;;;10345683;28;20038;-75
2022/07/16 08:39:08;;;;;;;4.75;1.77;;;;;;;;;;10353048;28;20038;-74
2022/07/16 08:44:09;;;;;;;7.50;1.50;;;;;;;;;;10363917;28;20026;-74
2022/07/16 08:49:10;;;;;;;3.60;1.40;;;;;;;;;;10349526;28;20053;-74
2022/07/16 08:54:12;;;;;;;4.47;1.50;;;;;;;;;;10345959;28;20034;-73
2022/07/16 08:59:13;;;;;;;3.15;1.77;;;;;;;;;;10325950;28;20041;-74
2022/07/16 09:04:13;;;;;;;2.47;1.40;;;;;;;;;;10344631;28;20117;-74
2022/07/16 09:09:14;;;;;;;7.27;2.27;;;;;;;;;;10333723;28;20046;-75
2022/07/16 09:14:15;;;;;;;3.22;1.60;;;;;;;;;;10342197;28;20030;-76
2022/07/16 09:19:18;;;;;;;4.82;2.20;;;;;;;;;;10348258;28;20492;-74
2022/07/16 09:24:29;;;;;;;4.70;1.50;;;;;;;;;;10345972;28;20036;-73
2022/07/16 09:29:32;;;;;;;5.90;1.52;;;;;;;;;;10341426;28;20125;-73
2022/07/16 09:34:32;;;;;;;3.25;1.50;;;;;;;;;;10349795;28;20126;-74
2022/07/16 09:39:33;;;;;;;7.45;1.50;;;;;;;;;;10347500;28;20158;-75
2022/07/16 09:44:34;;;;;;;3.83;1.17;;;;;;;;;;10340817;28;20096;-77
2022/07/16 09:49:36;;;;;;;2.38;1.27;;;;;;;;;;10345373;28;20038;-73
2022/07/16 09:54:38;;;;;;;2.28;1.25;;;;;;;;;;10330844;28;20092;-73
2022/07/16 09:59:38;;;;;;;4.90;1.60;;;;;;;;;;10337236;28;20058;-74
2022/07/16 10:04:39;;;;;;;13.73;1.50;;;;;;;;;;10358706;28;20400;-74
2022/07/16 10:09:39;;;;;;;4.30;1.45;;;;;;;;;;10339726;28;20577;-79
2022/07/16 10:14:42;;;;;;;1.93;0.97;;;;;;;;;;10349082;28;20040;-73
2022/07/16 10:19:43;;;;;;;1.98;1.10;;;;;;;;;;10346649;28;20037;-73
2022/07/16 10:24:50;;;;;;;6.83;1.20;;;;;;;;;;10363151;28;20412;-73
2022/07/16 10:30:06;;;;;;;3.38;1.08;;;;;;;;;;10364335;28;20635;-73
2022/07/16 10:35:26;;;;;;;2.88;1.00;;;;;;;;;;10345488;28;20112;-73
2022/07/16 10:40:26;;;;;;;5.43;1.13;;;;;;;;;;10352541;28;20034;-73
2022/07/16 10:45:46;;;;;;;5.60;1.05;;;;;;;;;;10350864;28;20034;-72
2022/07/16 10:51:05;;;;;;;3.60;1.23;;;;;;;;;;10347819;28;20125;-74
2022/07/16 10:56:24;;;;;;;8.55;1.33;;;;;;;;;;10352465;28;20030;-76
2022/07/16 11:01:24;;;;;;;1.65;1.02;;;;;;;;;;10342752;28;20050;-72
2022/07/16 11:06:25;;;;;;;4.80;1.37;;;;;;;;;;10358832;28;20038;-73
2022/07/16 11:11:35;;;;;;;3.47;1.00;;;;;;;;;;10363760;28;20026;-73
2022/07/16 11:16:47;;;;;;;6.60;2.80;;;;;;;;;;10365314;28;20030;-73
2022/07/16 11:21:54;;;;;;;6.05;1.52;;;;;;;;;;10350831;28;20030;-75
2022/07/16 11:26:55;;;;;;;4.55;1.60;;;;;;;;;;10352526;28;20062;-74
2022/07/16 11:31:57;;;;;;;9.15;3.40;;;;;;;;;;10354315;28;20057;-74
2022/07/16 11:36:57;;;;;;;10.20;2.42;;;;;;;;;;10355996;28;20038;-75
2022/07/16 11:41:58;;;;;;;2.35;1.75;;;;;;;;;;10340435;28;20046;-74
2022/07/16 11:47:00;;;;;;;3.45;1.88;;;;;;;;;;10329179;28;20034;-74
2022/07/16 11:52:04;;;;;;;7.55;2.30;;;;;;;;;;10314019;28;20037;-75
2022/07/16 11:57:07;;;;;;;5.93;2.20;;;;;;;;;;10307103;28;20034;-75
2022/07/16 12:02:12;;;;;;;3.90;1.73;;;;;;;;;;10312148;28;20051;-76
2022/07/16 12:07:13;;;;;;;2.75;1.75;;;;;;;;;;10328001;28;20030;-74
2022/07/16 12:12:14;;;;;;;1.92;1.73;;;;;;;;;;10293807;28;20030;-75
2022/07/16 12:17:40;;;;;;;6.68;1.85;;;;;;;;;;10310586;28;20404;-74
2022/07/16 12:22:46;;;;;;;6.70;2.00;;;;;;;;;;10311088;28;20030;-73
2022/07/16 12:28:00;;;;;;;2.25;1.85;;;;;;;;;;10314091;28;20485;-74
2022/07/16 12:33:01;;;;;;;5.47;2.88;;;;;;;;;;10313424;28;20042;-73
2022/07/16 12:38:02;;;;;;;4.28;1.70;;;;;;;;;;10313379;28;20035;-73
2022/07/16 12:43:02;;;;;;;6.97;1.75;;;;;;;;;;10313572;28;20038;-73
2022/07/16 12:48:02;;;;;;;2.28;1.40;;;;;;;;;;10313098;28;20112;-75
2022/07/16 12:53:03;;;;;;;2.37;1.90;;;;;;;;;;10312817;28;20057;-73
2022/07/16 13:03:22;;;;;;;6.50;2.00;;;;;;;;;;10330172;28;20074;-75
2022/07/16 13:08:22;;;;;;;3.97;1.33;;;;;;;;;;10328818;28;20066;-75
2022/07/16 13:13:22;;;;;;;4.43;1.92;;;;;;;;;;10312570;28;20069;-73
2022/07/16 13:18:23;;;;;;;5.67;2.03;;;;;;;;;;10312424;28;20030;-72
2022/07/16 13:23:23;;;;;;;1.77;1.50;;;;;;;;;;10312270;28;20041;-73
2022/07/16 13:28:23;;;;;;;5.37;1.50;;;;;;;;;;10312074;28;20407;-73
2022/07/16 13:33:24;;;;;;;2.53;2.13;;;;;;;;;;10329488;28;20023;-72
2022/07/16 13:38:25;;;;;;;6.83;1.40;;;;;;;;;;10312365;28;20397;-76
2022/07/16 13:43:25;;;;;;;1.98;1.52;;;;;;;;;;10317341;28;20038;-73
2022/07/16 13:48:25;;;;;;;8.73;2.65;;;;;;;;;;10319592;28;20035;-73
2022/07/16 13:53:25;;;;;;;4.20;1.63;;;;;;;;;;10320124;28;20180;-74
2022/07/16 13:58:26;;;;;;;3.83;1.65;;;;;;;;;;10319459;28;20527;-75
2022/07/16 14:03:26;;;;;;;8.00;1.65;;;;;;;;;;10336608;28;20436;-75
2022/07/16 14:08:27;;;;;;;4.55;1.98;;;;;;;;;;10319141;28;20481;-73
2022/07/16 14:13:27;;;;;;;5.67;1.70;;;;;;;;;;10318750;28;20411;-74
2022/07/16 14:18:28;;;;;;;1.77;1.23;;;;;;;;;;10318635;28;20125;-73
2022/07/16 14:23:29;;;;;;;7.47;1.87;;;;;;;;;;10318592;28;20057;-73
2022/07/16 14:28:29;;;;;;;9.93;1.67;;;;;;;;;;10335886;28;20072;-73
2022/07/16 14:33:29;;;;;;;6.20;1.67;;;;;;;;;;10318123;28;20062;-74
2022/07/16 14:38:29;;;;;;;4.38;1.65;;;;;;;;;;10335320;28;20038;-74
2022/07/16 14:43:30;;;;;;;2.00;1.60;;;;;;;;;;10317685;28;20117;-74
2022/07/16 14:48:30;;;;;;;1.92;1.83;;;;;;;;;;10317302;28;20034;-74
2022/07/16 14:53:30;;;;;;;4.40;2.70;;;;;;;;;;10315908;28;20411;-74
2022/07/16 14:58:30;;;;;;;3.63;2.10;;;;;;;;;;10316847;28;20121;-74
2022/07/16 15:03:31;;;;;;;3.05;1.92;;;;;;;;;;10316565;28;20046;-74
2022/07/16 15:08:31;;;;;;;7.40;2.28;;;;;;;;;;10316569;28;20121;-75
2022/07/16 15:13:31;;;;;;;6.07;2.73;;;;;;;;;;10316666;28;20032;-74
2022/07/16 15:18:32;;;;;;;3.78;2.70;;;;;;;;;;10332700;28;20030;-73
2022/07/16 15:23:32;;;;;;;4.77;2.40;;;;;;;;;;10316300;28;20436;-74
2022/07/16 15:28:32;;;;;;;12.48;2.72;;;;;;;;;;10316575;28;20031;-74
2022/07/16 15:33:40;;;;;;;3.38;2.13;;;;;;;;;;10315576;28;20113;-73
2022/07/16 15:38:44;;;;;;;5.43;2.50;;;;;;;;;;10315302;28;20049;-74
2022/07/16 15:43:44;;;;;;;5.10;2.13;;;;;;;;;;10315495;28;20082;-74
2022/07/16 15:48:45;;;;;;;6.10;2.27;;;;;;;;;;10314938;28;20109;-74
2022/07/16 15:53:45;;;;;;;4.35;2.00;;;;;;;;;;10314817;28;20489;-74
2022/07/16 15:58:45;;;;;;;7.75;4.65;;;;;;;;;;10314669;28;20045;-74
2022/07/16 16:03:46;;;;;;;4.88;2.88;;;;;;;;;;10313871;28;20050;-74
2022/07/16 16:08:46;;;;;;;9.40;2.77;;;;;;;;;;10314215;28;20030;-75
2022/07/16 16:13:46;;;;;;;7.82;2.47;;;;;;;;;;10313807;28;20283;-74
2022/07/16 16:18:47;;;;;;;5.67;2.80;;;;;;;;;;10313726;28;20501;-74
2022/07/16 16:23:47;;;;;;;9.15;2.58;;;;;;;;;;10313757;28;20027;-74
2022/07/16 16:28:47;;;;;;;7.57;2.70;;;;;;;;;;10313476;28;20393;-73
2022/07/16 16:33:47;;;;;;;7.18;2.85;;;;;;;;;;10313234;28;20062;-73
2022/07/16 16:38:48;;;;;;;7.68;3.03;;;;;;;;;;10313302;28;20518;-74
2022/07/16 16:43:48;;;;;;;5.28;2.80;;;;;;;;;;10313197;28;20133;-74
2022/07/16 16:48:48;;;;;;;5.22;3.15;;;;;;;;;;10313346;28;20432;-73
2022/07/16 16:53:49;;;;;;;4.10;2.78;;;;;;;;;;10312712;28;20525;-75
2022/07/16 16:58:49;;;;;;;6.95;2.72;;;;;;;;;;10312794;28;20042;-76
2022/07/16 17:03:51;;;;;;;7.47;2.80;;;;;;;;;;10312575;28;20078;-74
2022/07/16 17:08:51;;;;;;;4.95;3.25;;;;;;;;;;10329956;28;20073;-74
2022/07/16 17:13:51;;;;;;;3.67;2.53;;;;;;;;;;10312171;28;20031;-74
2022/07/16 17:18:52;;;;;;;4.85;2.50;;;;;;;;;;10311392;28;20032;-74
2022/07/16 17:23:52;;;;;;;4.88;2.70;;;;;;;;;;10312104;28;20030;-73
2022/07/16 17:28:52;;;;;;;4.10;2.50;;;;;;;;;;10311887;28;20080;-74
2022/07/16 17:33:52;;;;;;;7.15;2.80;;;;;;;;;;10311830;28;20029;-74
2022/07/16 17:38:53;;;;;;;5.63;2.50;;;;;;;;;;10312283;28;20416;-73
2022/07/16 17:43:53;;;;;;;3.78;2.92;;;;;;;;;;10312031;28;20031;-74
2022/07/16 17:54:12;;;;;;;6.88;3.10;;;;;;;;;;10329242;28;20026;-74
2022/07/16 17:59:13;;;;;;;4.57;3.50;;;;;;;;;;10329124;28;20026;-75
2022/07/16 18:04:13;;;;;;;5.10;3.67;;;;;;;;;;10311636;28;20036;-75
2022/07/16 18:09:13;;;;;;;7.05;4.00;;;;;;;;;;10311401;28;20459;-75
2022/07/16 18:14:13;;;;;;;8.40;4.33;;;;;;;;;;10311463;28;20125;-77
2022/07/16 18:19:14;;;;;;;9.90;3.90;;;;;;;;;;10311548;28;20058;-74
2022/07/16 18:24:14;;;;;;;11.17;4.13;;;;;;;;;;10311391;28;20038;-74
2022/07/16 18:29:14;;;;;;;7.40;4.43;;;;;;;;;;10316080;28;20431;-73
2022/07/16 18:34:15;;;;;;;7.57;3.70;;;;;;;;;;10335694;28;20034;-73
2022/07/16 18:39:15;;;;;;;12.47;4.33;;;;;;;;;;10318020;28;20030;-74
2022/07/16 18:44:16;;;;;;;6.17;3.57;;;;;;;;;;10317999;28;20037;-74
2022/07/16 18:49:16;;;;;;;8.75;4.55;;;;;;;;;;10334882;28;20033;-74
2022/07/16 18:54:16;;;;;;;9.95;3.50;;;;;;;;;;10317991;28;20030;-74
2022/07/16 18:59:16;;;;;;;12.30;3.33;;;;;;;;;;10317198;28;20064;-74
2022/07/16 19:04:17;;;;;;;6.35;3.80;;;;;;;;;;10317038;28;20038;-74
2022/07/16 19:09:17;;;;;;;12.52;4.22;;;;;;;;;;10316592;28;20035;-74
2022/07/16 19:14:17;;;;;;;5.22;3.20;;;;;;;;;;10316655;28;20030;-74
2022/07/16 19:19:19;;;;;;;7.53;3.60;;;;;;;;;;10316517;28;20035;-76
2022/07/16 19:24:20;;;;;;;10.57;4.05;;;;;;;;;;10316659;28;20034;-75
2022/07/16 19:29:20;;;;;;;9.43;3.65;;;;;;;;;;10315861;28;20568;-75
2022/07/16 19:34:20;;;;;;;8.63;4.13;;;;;;;;;;10315813;28;20511;-74
2022/07/16 19:39:21;;;;;;;8.87;5.93;;;;;;;;;;10315045;28;20452;-74
2022/07/16 19:44:21;;;;;;;12.10;7.43;;;;;;;;;;10331898;28;20040;-74
2022/07/16 19:49:21;;;;;;;11.65;7.15;;;;;;;;;;10331467;28;20038;-74
2022/07/16 19:54:21;;;;;;;7.55;3.88;;;;;;;;;;10332303;28;20485;-74
2022/07/16 19:59:22;;;;;;;10.63;7.40;;;;;;;;;;10314761;28;20081;-75
2022/07/16 20:04:22;;;;;;;9.90;6.67;;;;;;;;;;10314472;28;20046;-74
2022/07/16 20:09:24;;;;;;;18.17;12.55;;;;;;;;;;10314278;28;20034;-75
2022/07/16 20:14:24;;;;;;;10.15;6.40;;;;;;;;;;10314619;28;20034;-74
2022/07/16 20:19:25;;;;;;;21.77;14.55;;;;;;;;;;10298044;28;20448;-75
2022/07/16 20:24:25;;;;;;;7.30;5.00;;;;;;;;;;10314073;28;20113;-75
2022/07/16 20:29:25;;;;;;;11.33;7.83;;;;;;;;;;10313996;28;20508;-74
2022/07/16 20:34:26;;;;;;;12.55;4.30;;;;;;;;;;10313643;28;20038;-74
2022/07/16 20:39:26;;;;;;;6.97;3.70;;;;;;;;;;10329951;28;20034;-75
2022/07/16 20:44:26;;;;;;;8.85;4.88;;;;;;;;;;10330933;28;20412;-75
2022/07/16 20:49:27;;;;;;;10.95;5.32;;;;;;;;;;10312650;28;20053;-74
2022/07/16 20:54:27;;;;;;;11.38;6.75;;;;;;;;;;10312446;28;20166;-75
2022/07/16 20:59:27;;;;;;;6.38;3.33;;;;;;;;;;10312719;28;20046;-74
2022/07/16 21:04:27;;;;;;;5.20;3.83;;;;;;;;;;10330094;28;20041;-74
2022/07/16 21:09:29;;;;;;;7.65;4.95;;;;;;;;;;10330089;28;20073;-74
2022/07/16 21:14:29;;;;;;;6.05;3.83;;;;;;;;;;10312475;28;20037;-75
2022/07/16 21:19:29;;;;;;;5.90;3.83;;;;;;;;;;10330382;28;20464;-76
2022/07/16 21:24:30;;;;;;;8.00;3.45;;;;;;;;;;10312431;28;20034;-76
2022/07/16 21:29:30;;;;;;;27.75;16.88;;;;;;;;;;10312471;28;20034;-75
2022/07/16 21:34:30;;;;;;;22.25;14.50;;;;;;;;;;10312156;28;20499;-77
2022/07/16 21:39:30;;;;;;;5.18;3.50;;;;;;;;;;10312132;28;20483;-75
2022/07/16 21:44:31;;;;;;;11.18;2.92;;;;;;;;;;10312235;28;20038;-76
2022/07/16 21:49:31;;;;;;;6.20;3.87;;;;;;;;;;10329507;28;20556;-76
2022/07/16 21:54:31;;;;;;;7.05;3.03;;;;;;;;;;10312148;28;20113;-75
2022/07/16 21:59:32;;;;;;;3.75;2.72;;;;;;;;;;10312031;28;20054;-75
2022/07/16 22:04:32;;;;;;;5.05;3.00;;;;;;;;;;10317284;28;20046;-75
2022/07/16 22:09:33;;;;;;;6.35;3.08;;;;;;;;;;10336701;28;20419;-76
2022/07/16 22:14:33;;;;;;;3.83;2.70;;;;;;;;;;10319208;28;20031;-72
2022/07/16 22:24:52;;;;;;;4.07;3.05;;;;;;;;;;10336660;28;20038;-75
2022/07/16 22:29:52;;;;;;;6.07;3.40;;;;;;;;;;10318665;28;20034;-74
2022/07/16 22:34:53;;;;;;;3.90;2.50;;;;;;;;;;10335923;28;20038;-75
2022/07/16 22:39:53;;;;;;;3.17;2.28;;;;;;;;;;10318319;28;20501;-75
2022/07/16 22:44:53;;;;;;;5.75;2.70;;;;;;;;;;10334387;28;20477;-75
2022/07/16 22:49:53;;;;;;;4.57;3.05;;;;;;;;;;10335850;28;20033;-74
2022/07/16 22:54:54;;;;;;;6.55;2.95;;;;;;;;;;10333927;28;20165;-75
2022/07/16 22:59:54;;;;;;;7.47;2.55;;;;;;;;;;10317513;28;20058;-74
2022/07/16 23:04:54;;;;;;;11.30;3.65;;;;;;;;;;10317516;28;20042;-74
2022/07/16 23:09:55;;;;;;;4.73;2.60;;;;;;;;;;10317023;28;20034;-75
2022/07/16 23:14:55;;;;;;;5.30;2.50;;;;;;;;;;10333597;28;20113;-74
2022/07/16 23:19:55;;;;;;;3.50;2.88;;;;;;;;;;10316918;28;20042;-75
2022/07/16 23:24:56;;;;;;;5.65;2.90;;;;;;;;;;10316690;28;20074;-75
2022/07/16 23:29:56;;;;;;;4.97;2.78;;;;;;;;;;10316535;28;20093;-74
2022/07/16 23:34:56;;;;;;;6.10;2.67;;;;;;;;;;10333902;28;20041;-74
2022/07/16 23:39:56;;;;;;;4.85;2.55;;;;;;;;;;10315932;28;20034;-75
2022/07/16 23:44:57;;;;;;;6.15;3.00;;;;;;;;;;10315661;28;20432;-74
2022/07/16 23:49:57;;;;;;;5.03;2.72;;;;;;;;;;10315701;28;20027;-74
2022/07/16 23:54:57;;;;;;;3.50;2.75;;;;;;;;;;10315386;28;20117;-74
2022/07/16 23:59:58;;;;;;;4.43;2.10;;;;;;;;;;10315305;28;20042;-74
